createdAt,value
2018-05-04T00:00:59.874Z,6.10
2018-05-04T00:03:26.480Z,7.87
2018-05-04T00:05:52.960Z,8.23
2018-05-04T00:08:19.496Z,7.57
2018-05-04T00:10:46.425Z,7.10
2018-05-04T00:13:12.876Z,6.85
2018-05-04T00:15:39.332Z,7.53
2018-05-04T00:18:06.551Z,7.12
2018-05-04T00:20:32.973Z,6.72
2018-05-04T00:22:59.488Z,7.07
2018-05-04T00:25:25.931Z,7.30
2018-05-04T00:27:52.380Z,9.15
2018-05-04T00:30:18.819Z,8.85
2018-05-04T00:32:45.248Z,9.15
2018-05-04T00:35:11.655Z,9.18
2018-05-04T00:37:38.098Z,9.88
2018-05-04T00:40:04.816Z,9.32
2018-05-04T00:42:31.266Z,8.02
2018-05-04T00:44:57.720Z,8.73
2018-05-04T00:47:24.161Z,9.40
2018-05-04T00:49:50.721Z,9.05
2018-05-04T00:52:17.126Z,8.00
2018-05-04T00:54:43.653Z,8.10
2018-05-04T00:57:10.081Z,7.85
2018-05-04T00:59:36.588Z,7.30
2018-05-04T01:02:03.000Z,7.40
2018-05-04T01:04:30.278Z,9.20
2018-05-04T01:06:56.740Z,8.07
2018-05-04T01:09:23.191Z,7.87
2018-05-04T01:11:49.878Z,7.53
2018-05-04T01:14:16.331Z,7.03
2018-05-04T01:16:44.418Z,8.80
2018-05-04T01:19:12.365Z,10.48
2018-05-04T01:21:38.773Z,8.55
2018-05-04T01:24:06.251Z,7.85
2018-05-04T01:26:32.676Z,9.93
2018-05-04T01:28:59.094Z,7.57
2018-05-04T01:31:26.244Z,7.50
2018-05-04T01:33:53.367Z,12.57
2018-05-04T01:36:19.784Z,8.63
2018-05-04T01:38:46.375Z,10.93
2018-05-04T01:41:12.783Z,8.73
2018-05-04T01:43:40.825Z,10.18
2018-05-04T01:46:07.260Z,9.55
2018-05-04T01:48:33.653Z,8.95
2018-05-04T01:51:00.311Z,9.80
2018-05-04T01:53:26.753Z,9.00
2018-05-04T01:55:53.172Z,9.10
2018-05-04T01:58:19.989Z,9.57
2018-05-04T02:00:46.386Z,11.65
2018-05-04T02:03:13.547Z,9.75
2018-05-04T02:05:40.756Z,9.50
2018-05-04T02:08:07.931Z,9.70
2018-05-04T02:10:35.107Z,10.93
2018-05-04T02:13:02.275Z,14.43
2018-05-04T02:15:28.671Z,10.52
2018-05-04T02:17:55.078Z,10.35
2018-05-04T02:20:21.519Z,9.10
2018-05-04T02:22:49.366Z,9.93
2018-05-04T02:25:15.883Z,9.93
2018-05-04T02:27:42.725Z,9.48
2018-05-04T02:30:09.205Z,13.18
2018-05-04T02:32:35.895Z,9.45
2018-05-04T02:35:02.328Z,12.13
2018-05-04T02:37:28.930Z,9.65
2018-05-04T02:39:55.461Z,10.10
2018-05-04T02:42:23.365Z,9.48
2018-05-04T02:44:49.743Z,11.07
2018-05-04T02:47:16.320Z,11.65
2018-05-04T02:49:42.870Z,9.90
2018-05-04T02:52:09.338Z,9.90
2018-05-04T02:54:35.745Z,11.05
2018-05-04T02:57:02.392Z,10.13
2018-05-04T02:59:28.937Z,12.32
2018-05-04T03:01:55.380Z,14.10
2018-05-04T03:04:21.831Z,10.75
2018-05-04T03:06:48.209Z,14.25
2018-05-04T03:09:14.581Z,11.57
2018-05-04T03:11:41.056Z,10.77
2018-05-04T03:14:08.206Z,13.35
2018-05-04T03:16:35.355Z,10.60
2018-05-04T03:19:03.434Z,11.52
2018-05-04T03:21:30.564Z,11.00
2018-05-04T03:23:57.708Z,12.15
2018-05-04T03:26:24.173Z,11.85
2018-05-04T03:28:50.585Z,9.95
2018-05-04T03:31:17.772Z,10.70
2018-05-04T03:33:44.262Z,9.95
2018-05-04T03:36:10.640Z,11.10
2018-05-04T03:38:37.092Z,13.75
2018-05-04T03:41:03.899Z,10.02
2018-05-04T03:43:31.146Z,9.63
2018-05-04T03:45:58.345Z,10.35
2018-05-04T03:48:24.773Z,8.93
2018-05-04T03:50:51.168Z,10.85
2018-05-04T03:53:17.832Z,10.23
2018-05-04T03:55:44.300Z,10.32
2018-05-04T03:58:29.099Z,10.50
2018-05-04T04:01:14.026Z,11.77
2018-05-04T04:03:59.761Z,10.43
2018-05-04T04:06:26.189Z,10.45
2018-05-04T04:08:52.596Z,10.40
2018-05-04T04:11:20.082Z,11.88
2018-05-04T04:13:46.544Z,10.95
2018-05-04T04:16:13.255Z,9.90
2018-05-04T04:18:39.688Z,11.30
2018-05-04T04:21:06.120Z,11.12
2018-05-04T04:23:32.550Z,11.18
2018-05-04T04:25:59.062Z,9.98
2018-05-04T04:28:26.204Z,11.70
2018-05-04T04:30:54.172Z,10.63
2018-05-04T04:33:21.331Z,11.60
2018-05-04T04:35:48.511Z,11.27
2018-05-04T04:38:15.348Z,13.60
2018-05-04T04:40:41.770Z,13.50
2018-05-04T04:43:08.930Z,11.80
2018-05-04T04:45:35.314Z,10.68
2018-05-04T04:48:01.724Z,11.02
2018-05-04T04:50:28.307Z,9.38
2018-05-04T04:52:55.449Z,10.30
2018-05-04T04:55:22.937Z,10.70
2018-05-04T04:57:49.680Z,10.30
2018-05-04T05:00:16.174Z,9.57
2018-05-04T05:02:43.369Z,11.43
2018-05-04T05:05:09.914Z,10.90
2018-05-04T05:07:36.423Z,11.10
2018-05-04T05:10:03.572Z,10.80
2018-05-04T05:12:30.902Z,10.57
2018-05-04T05:14:57.566Z,11.73
2018-05-04T05:17:24.732Z,13.02
2018-05-04T05:19:51.507Z,13.52
2018-05-04T05:22:17.958Z,13.48
2018-05-04T05:24:44.450Z,8.35
2018-05-04T05:27:11.203Z,9.52
2018-05-04T05:29:37.812Z,10.80
2018-05-04T05:32:04.448Z,10.30
2018-05-04T05:34:31.339Z,10.85
2018-05-04T05:36:58.606Z,9.73
2018-05-04T05:39:25.930Z,13.05
2018-05-04T05:41:52.573Z,10.15
2018-05-04T05:44:18.999Z,9.48
2018-05-04T05:46:45.545Z,10.45
2018-05-04T05:49:12.034Z,10.23
2018-05-04T05:51:38.699Z,8.20
2018-05-04T05:54:05.140Z,10.95
2018-05-04T05:56:31.936Z,8.27
2018-05-04T05:58:59.214Z,14.18
2018-05-04T06:01:25.717Z,10.95
2018-05-04T06:03:52.890Z,8.20
2018-05-04T06:06:19.304Z,10.27
2018-05-04T06:08:47.741Z,10.00
2018-05-04T06:11:14.172Z,12.73
2018-05-04T06:13:40.885Z,11.25
2018-05-04T06:16:07.323Z,12.40
2018-05-04T06:18:33.793Z,10.05
2018-05-04T06:21:00.490Z,12.73
2018-05-04T06:23:26.943Z,10.23
2018-05-04T06:25:53.349Z,11.85
2018-05-04T06:28:19.816Z,9.88
2018-05-04T06:30:46.251Z,13.20
2018-05-04T06:33:12.711Z,10.88
2018-05-04T06:35:39.323Z,13.43
2018-05-04T06:38:05.853Z,8.77
2018-05-04T06:40:32.424Z,15.02
2018-05-04T06:42:59.931Z,7.72
2018-05-04T06:45:26.651Z,10.98
2018-05-04T06:47:53.107Z,10.98
2018-05-04T06:50:19.533Z,7.80
2018-05-04T06:52:45.998Z,8.73
2018-05-04T06:55:12.457Z,9.43
2018-05-04T06:57:39.664Z,7.85
2018-05-04T07:00:06.066Z,10.77
2018-05-04T07:02:32.526Z,9.90
2018-05-04T07:04:58.941Z,13.00
2018-05-04T07:07:25.339Z,9.27
2018-05-04T07:09:52.561Z,9.52
2018-05-04T07:12:19.272Z,10.65
2018-05-04T07:14:45.876Z,7.80
2018-05-04T07:17:13.056Z,7.05
2018-05-04T07:19:39.468Z,9.95
2018-05-04T07:22:06.629Z,10.82
2018-05-04T07:24:33.116Z,10.13
2018-05-04T07:26:59.683Z,8.93
2018-05-04T07:29:26.112Z,12.07
2018-05-04T07:31:53.308Z,7.18
2018-05-04T07:34:19.693Z,7.07
2018-05-04T07:36:46.844Z,7.50
2018-05-04T07:39:14.070Z,7.10
2018-05-04T07:41:40.483Z,7.75
2018-05-04T07:44:06.913Z,6.45
2018-05-04T07:46:33.846Z,10.82
2018-05-04T07:49:00.295Z,10.75
2018-05-04T07:51:26.693Z,7.00
2018-05-04T07:53:53.995Z,8.60
2018-05-04T07:56:35.409Z,8.73
2018-05-04T07:59:02.714Z,7.28
2018-05-04T08:01:29.155Z,7.37
2018-05-04T08:03:55.608Z,10.93
2018-05-04T08:06:22.400Z,13.00
2018-05-04T08:08:49.140Z,9.23
2018-05-04T08:11:15.590Z,9.68
2018-05-04T08:13:42.074Z,7.18
2018-05-04T08:16:09.493Z,7.80
2018-05-04T08:18:35.981Z,7.50
2018-05-04T08:21:03.169Z,9.80
2018-05-04T08:23:29.582Z,11.70
2018-05-04T08:25:56.134Z,7.47
2018-05-04T08:28:22.594Z,7.18
2018-05-04T08:30:49.290Z,9.48
2018-05-04T08:33:16.030Z,8.85
2018-05-04T08:35:42.473Z,10.77
2018-05-04T08:38:08.876Z,9.88
2018-05-04T08:40:35.323Z,11.82
2018-05-04T08:43:01.871Z,5.63
2018-05-04T08:45:28.205Z,6.53
2018-05-04T08:47:54.631Z,13.43
2018-05-04T08:50:21.095Z,8.18
2018-05-04T08:52:47.511Z,8.07
2018-05-04T08:55:13.913Z,9.80
2018-05-04T08:57:40.378Z,7.90
2018-05-04T09:00:06.797Z,10.32
2018-05-04T09:02:33.223Z,11.12
2018-05-04T09:04:59.788Z,8.95
2018-05-04T09:07:26.246Z,12.10
2018-05-04T09:09:52.728Z,10.82
2018-05-04T09:12:19.230Z,9.43
2018-05-04T09:14:46.398Z,10.32
2018-05-04T09:17:13.160Z,9.18
2018-05-04T09:19:39.642Z,11.73
2018-05-04T09:22:07.503Z,10.40
2018-05-04T09:24:33.982Z,16.63
2018-05-04T09:27:00.828Z,12.20
2018-05-04T09:29:27.229Z,10.90
2018-05-04T09:31:53.660Z,9.03
2018-05-04T09:34:21.300Z,11.10
2018-05-04T09:36:47.739Z,9.13
2018-05-04T09:39:15.676Z,8.93
2018-05-04T09:41:42.114Z,15.90
2018-05-04T09:44:08.643Z,12.83
2018-05-04T09:46:35.625Z,8.53
2018-05-04T09:49:02.336Z,11.47
2018-05-04T09:51:29.482Z,8.13
2018-05-04T09:53:55.920Z,11.20
2018-05-04T09:56:22.381Z,9.53
2018-05-04T09:58:48.849Z,11.93
2018-05-04T10:01:15.327Z,10.87
2018-05-04T10:03:41.863Z,9.73
2018-05-04T10:06:08.251Z,15.13
2018-05-04T10:08:34.673Z,11.47
2018-05-04T10:11:01.108Z,9.93
2018-05-04T10:13:28.217Z,9.13
2018-05-04T10:15:54.672Z,11.43
2018-05-04T10:18:21.074Z,10.27
2018-05-04T10:20:47.575Z,8.07
2018-05-04T10:23:13.998Z,7.87
2018-05-04T10:25:40.464Z,12.23
2018-05-04T10:28:06.890Z,14.47
2018-05-04T10:30:33.363Z,13.33
2018-05-04T10:32:59.792Z,11.00
2018-05-04T10:35:26.214Z,15.30
2018-05-04T10:37:53.428Z,13.80
2018-05-04T10:40:19.978Z,13.23
2018-05-04T10:42:46.448Z,10.47
2018-05-04T10:45:12.937Z,12.10
2018-05-04T10:47:40.501Z,13.07
2018-05-04T10:50:06.926Z,13.27
2018-05-04T10:52:33.463Z,15.23
2018-05-04T10:54:59.958Z,9.57
2018-05-04T10:57:26.380Z,13.63
2018-05-04T10:59:52.787Z,9.37
2018-05-04T11:02:19.218Z,12.70
2018-05-04T11:04:45.715Z,14.07
2018-05-04T11:07:12.128Z,11.63
2018-05-04T11:09:38.556Z,11.33
2018-05-04T11:12:05.067Z,12.50
2018-05-04T11:14:32.155Z,11.53
2018-05-04T11:16:59.341Z,9.67
2018-05-04T11:19:25.832Z,12.23
2018-05-04T11:21:52.230Z,12.53
2018-05-04T11:24:18.705Z,13.13
2018-05-04T11:26:45.868Z,13.70
2018-05-04T11:29:12.307Z,11.17
2018-05-04T11:31:38.761Z,9.07
2018-05-04T11:34:05.195Z,9.17
2018-05-04T11:36:31.616Z,9.60
2018-05-04T11:38:58.368Z,18.83
2018-05-04T11:41:24.820Z,25.40
2018-05-04T11:43:52.790Z,19.33
2018-05-04T11:46:20.014Z,12.90
2018-05-04T11:48:46.459Z,20.40
2018-05-04T11:51:12.898Z,16.70
2018-05-04T11:53:39.378Z,12.27
2018-05-04T11:56:06.736Z,21.63
2018-05-04T11:58:33.887Z,25.90
2018-05-04T12:01:01.062Z,22.37
2018-05-04T12:03:27.976Z,12.30
2018-05-04T12:05:55.213Z,11.97
2018-05-04T12:08:21.871Z,14.30
2018-05-04T12:10:49.117Z,11.50
2018-05-04T12:13:16.395Z,13.17
2018-05-04T12:15:42.843Z,10.97
2018-05-04T12:18:09.277Z,11.70
2018-05-04T12:20:35.859Z,18.27
2018-05-04T12:23:02.347Z,16.00
2018-05-04T12:25:28.792Z,12.97
2018-05-04T12:27:56.097Z,17.20
2018-05-04T12:30:23.272Z,12.10
2018-05-04T12:32:49.872Z,11.63
2018-05-04T12:35:16.341Z,12.43
2018-05-04T12:37:42.808Z,12.07
2018-05-04T12:40:10.087Z,12.83
2018-05-04T12:42:36.520Z,12.63
2018-05-04T12:45:02.964Z,17.37
2018-05-04T12:47:30.176Z,15.23
2018-05-04T12:49:56.639Z,16.87
2018-05-04T12:52:23.142Z,8.47
2018-05-04T12:54:49.613Z,15.00
2018-05-04T12:57:16.287Z,19.77
2018-05-04T12:59:43.887Z,11.10
2018-05-04T13:02:10.554Z,12.43
2018-05-04T13:04:37.300Z,8.93
2018-05-04T13:07:04.756Z,11.80
2018-05-04T13:09:32.584Z,13.87
2018-05-04T13:11:59.290Z,9.60
2018-05-04T13:14:25.998Z,13.77
2018-05-04T13:16:52.697Z,11.70
2018-05-04T13:19:20.573Z,11.67
2018-05-04T13:21:47.139Z,10.17
2018-05-04T13:24:13.633Z,11.80
2018-05-04T13:26:40.106Z,13.00
2018-05-04T13:29:07.292Z,10.27
2018-05-04T13:31:33.730Z,12.43
2018-05-04T13:34:00.368Z,12.87
2018-05-04T13:36:27.204Z,9.77
2018-05-04T13:38:53.618Z,10.37
2018-05-04T13:41:20.761Z,14.07
2018-05-04T13:43:48.213Z,11.03
2018-05-04T13:46:14.639Z,12.17
2018-05-04T13:48:41.798Z,11.60
2018-05-04T13:51:09.355Z,11.33
2018-05-04T13:53:35.824Z,7.83
2018-05-04T13:56:02.248Z,9.47
2018-05-04T13:58:29.819Z,13.50
2018-05-04T14:00:56.330Z,10.33
2018-05-04T14:03:22.988Z,16.17
2018-05-04T14:05:49.629Z,11.17
2018-05-04T14:08:16.155Z,10.57
2018-05-04T14:10:42.655Z,12.33
2018-05-04T14:13:09.678Z,13.43
2018-05-04T14:15:38.203Z,10.30
2018-05-04T14:18:05.571Z,10.10
2018-05-04T14:20:32.571Z,12.17
2018-05-04T14:23:00.081Z,10.23
2018-05-04T14:25:26.819Z,9.47
2018-05-04T14:27:54.359Z,13.30
2018-05-04T14:30:21.526Z,12.10
2018-05-04T14:32:48.038Z,11.47
2018-05-04T14:35:14.583Z,9.53
2018-05-04T14:37:41.776Z,11.80
2018-05-04T14:40:08.252Z,15.27
2018-05-04T14:42:35.440Z,11.30
2018-05-04T14:45:01.885Z,10.23
2018-05-04T14:47:28.351Z,14.27
2018-05-04T14:49:54.804Z,11.80
2018-05-04T14:52:21.979Z,10.90
2018-05-04T14:54:48.493Z,11.80
2018-05-04T14:57:15.679Z,14.43
2018-05-04T14:59:42.905Z,14.50
2018-05-04T15:02:10.130Z,13.00
2018-05-04T15:04:38.104Z,9.80
2018-05-04T15:07:04.566Z,12.27
2018-05-04T15:09:31.036Z,14.10
2018-05-04T15:11:57.537Z,12.60
2018-05-04T15:14:24.058Z,12.30
2018-05-04T15:16:51.246Z,11.80
2018-05-04T15:19:17.849Z,9.20
2018-05-04T15:21:45.000Z,9.10
2018-05-04T15:24:12.493Z,10.57
2018-05-04T15:26:39.064Z,13.00
2018-05-04T15:29:05.488Z,9.87
2018-05-04T15:31:32.074Z,10.60
2018-05-04T15:33:59.214Z,9.20
2018-05-04T15:36:26.360Z,9.00
2018-05-04T15:38:53.893Z,9.17
2018-05-04T15:41:20.384Z,12.37
2018-05-04T15:43:46.868Z,10.07
2018-05-04T15:46:13.356Z,10.23
2018-05-04T15:48:46.263Z,15.10
2018-05-04T15:51:18.948Z,11.27
2018-05-04T15:53:45.683Z,10.77
2018-05-04T15:56:12.396Z,10.03
2018-05-04T15:58:39.059Z,9.27
2018-05-04T16:01:05.520Z,10.17
2018-05-04T16:03:32.001Z,10.60
2018-05-04T16:05:58.603Z,10.40
2018-05-04T16:08:26.159Z,9.40
2018-05-04T16:10:53.521Z,7.53
2018-05-04T16:13:20.685Z,9.73
2018-05-04T16:15:51.879Z,9.67
2018-05-04T16:18:18.331Z,7.63
2018-05-04T16:20:44.912Z,8.70
2018-05-04T16:23:11.407Z,11.23
2018-05-04T16:25:38.897Z,10.00
2018-05-04T16:28:05.325Z,9.03
2018-05-04T16:30:31.776Z,11.67
2018-05-04T16:32:58.539Z,8.10
2018-05-04T16:35:25.065Z,12.20
2018-05-04T16:37:51.677Z,13.80
2018-05-04T16:40:19.620Z,11.33
2018-05-04T16:42:46.875Z,5.73
2018-05-04T16:45:15.339Z,8.17
2018-05-04T16:47:48.640Z,11.57
2018-05-04T16:50:15.846Z,12.23
2018-05-04T16:52:42.320Z,10.47
2018-05-04T16:55:13.361Z,11.87
2018-05-04T16:57:44.683Z,10.18
2018-05-04T17:00:15.564Z,10.27
2018-05-04T17:02:42.363Z,8.03
2018-05-04T17:05:08.915Z,10.30
2018-05-04T17:07:35.939Z,7.37
2018-05-04T17:10:02.467Z,7.97
2018-05-04T17:12:28.995Z,6.07
2018-05-04T17:14:55.548Z,11.10
2018-05-04T17:17:23.003Z,11.83
2018-05-04T17:19:49.706Z,7.60
2018-05-04T17:22:16.328Z,8.20
2018-05-04T17:24:42.822Z,5.03
2018-05-04T17:27:09.307Z,7.87
2018-05-04T17:29:36.023Z,8.63
2018-05-04T17:32:03.275Z,12.30
2018-05-04T17:34:30.802Z,7.83
2018-05-04T17:36:57.270Z,9.10
2018-05-04T17:39:24.474Z,7.80
2018-05-04T17:41:51.260Z,6.47
2018-05-04T17:44:18.653Z,6.77
2018-05-04T17:46:45.729Z,8.47
2018-05-04T17:49:12.319Z,9.33
2018-05-04T17:51:38.834Z,9.47
2018-05-04T17:54:06.352Z,8.63
2018-05-04T17:56:32.788Z,6.73
2018-05-04T17:58:59.622Z,4.33
2018-05-04T18:01:26.187Z,8.30
2018-05-04T18:03:52.669Z,5.83
2018-05-04T18:06:19.316Z,6.20
2018-05-04T18:08:45.840Z,8.60
2018-05-04T18:11:12.361Z,5.80
2018-05-04T18:13:39.627Z,3.87
2018-05-04T18:16:06.131Z,6.57
2018-05-04T18:18:33.011Z,4.30
2018-05-04T18:21:00.099Z,7.97
2018-05-04T18:23:26.542Z,6.60
2018-05-04T18:25:53.804Z,5.57
2018-05-04T18:28:21.756Z,8.93
2018-05-04T18:30:48.422Z,8.53
2018-05-04T18:33:15.777Z,5.80
2018-05-04T18:35:42.978Z,4.73
2018-05-04T18:38:09.701Z,4.10
2018-05-04T18:40:36.216Z,10.60
2018-05-04T18:43:05.205Z,7.53
2018-05-04T18:45:33.792Z,11.90
2018-05-04T18:48:00.988Z,8.57
2018-05-04T18:50:30.287Z,6.90
2018-05-04T18:52:57.782Z,4.43
2018-05-04T18:55:25.025Z,6.57
2018-05-04T18:57:52.157Z,6.00
2018-05-04T19:00:22.169Z,7.10
2018-05-04T19:02:55.967Z,9.73
2018-05-04T19:05:22.625Z,8.27
2018-05-04T19:07:49.101Z,6.03
2018-05-04T19:10:15.545Z,6.87
2018-05-04T19:12:42.210Z,6.87
2018-05-04T19:15:08.770Z,8.33
2018-05-04T19:17:35.466Z,5.77
2018-05-04T19:20:02.282Z,7.20
2018-05-04T19:22:29.039Z,6.90
2018-05-04T19:24:55.679Z,5.43
2018-05-04T19:27:25.338Z,8.13
2018-05-04T19:29:52.076Z,10.67
2018-05-04T19:32:19.113Z,5.67
2018-05-04T19:34:47.362Z,5.67
2018-05-04T19:37:15.039Z,6.73
2018-05-04T19:39:42.292Z,5.55
2018-05-04T19:42:08.966Z,7.60
2018-05-04T19:44:36.853Z,8.60
2018-05-04T19:47:04.801Z,6.93
2018-05-04T19:49:33.720Z,5.12
2018-05-04T19:52:01.208Z,4.15
2018-05-04T19:54:28.872Z,7.07
2018-05-04T19:56:55.285Z,5.22
2018-05-04T19:59:22.178Z,6.20
2018-05-04T20:01:49.070Z,4.55
2018-05-04T20:04:16.493Z,8.03
2018-05-04T20:06:43.068Z,8.90
2018-05-04T20:09:09.644Z,7.23
2018-05-04T20:11:37.168Z,8.77
2018-05-04T20:14:05.563Z,4.90
2018-05-04T20:16:32.088Z,8.97
2018-05-04T20:18:58.681Z,5.00
2018-05-04T20:21:25.449Z,6.87
2018-05-04T20:23:52.088Z,8.73
2018-05-04T20:26:19.156Z,5.87
2018-05-04T20:28:46.387Z,5.63
2018-05-04T20:31:13.056Z,5.87
2018-05-04T20:33:39.763Z,8.67
2018-05-04T20:36:06.321Z,6.70
2018-05-04T20:38:33.847Z,6.68
2018-05-04T20:41:00.673Z,6.33
2018-05-04T20:43:27.623Z,7.07
2018-05-04T20:45:56.376Z,4.37
2018-05-04T20:48:23.157Z,6.07
2018-05-04T20:50:49.648Z,7.45
2018-05-04T20:53:19.043Z,8.73
2018-05-04T20:55:45.466Z,7.78
2018-05-04T20:58:12.552Z,5.72
2018-05-04T21:00:40.893Z,6.80
2018-05-04T21:03:08.027Z,7.67
2018-05-04T21:05:34.988Z,8.25
2018-05-04T21:08:01.622Z,7.40
2018-05-04T21:10:28.219Z,5.12
2018-05-04T21:12:54.665Z,6.72
2018-05-04T21:15:21.427Z,6.00
2018-05-04T21:17:48.562Z,8.77
2018-05-04T21:20:15.104Z,6.53
2018-05-04T21:22:41.948Z,6.50
2018-05-04T21:25:09.060Z,5.87
2018-05-04T21:27:36.637Z,7.35
2018-05-04T21:30:04.234Z,7.80
2018-05-04T21:32:30.979Z,5.55
2018-05-04T21:34:57.991Z,4.65
2018-05-04T21:37:25.640Z,4.78
2018-05-04T21:39:52.325Z,6.93
2018-05-04T21:42:19.449Z,3.95
2018-05-04T21:44:46.286Z,7.05
2018-05-04T21:47:13.620Z,5.40
2018-05-04T21:49:40.504Z,3.85
2018-05-04T21:52:07.732Z,10.40
2018-05-04T21:54:34.310Z,7.07
2018-05-04T21:57:02.453Z,4.65
2018-05-04T21:59:28.976Z,6.12
2018-05-04T22:01:55.408Z,6.55
2018-05-04T22:04:21.972Z,7.78
2018-05-04T22:06:48.512Z,10.30
2018-05-04T22:09:15.053Z,4.57
2018-05-04T22:11:41.501Z,8.13
2018-05-04T22:14:09.004Z,7.37
2018-05-04T22:16:35.743Z,4.45
2018-05-04T22:19:02.242Z,6.37
2018-05-04T22:21:30.657Z,9.02
2018-05-04T22:23:57.124Z,5.05
2018-05-04T22:26:23.725Z,3.72
2018-05-04T22:28:50.999Z,6.93
2018-05-04T22:31:17.591Z,5.70
2018-05-04T22:33:45.031Z,5.62
2018-05-04T22:36:11.484Z,6.82
2018-05-04T22:38:37.932Z,5.72
2018-05-04T22:41:04.543Z,6.28
2018-05-04T22:43:31.161Z,7.77
2018-05-04T22:45:57.702Z,5.22
2018-05-04T22:48:24.942Z,8.63
2018-05-04T22:50:51.750Z,5.32
2018-05-04T22:53:18.389Z,6.80
2018-05-04T22:55:45.052Z,5.80
2018-05-04T22:58:11.560Z,6.75
2018-05-04T23:00:38.239Z,5.82
2018-05-04T23:03:04.773Z,8.52
2018-05-04T23:05:31.255Z,7.37
2018-05-04T23:07:57.814Z,8.40
2018-05-04T23:10:24.366Z,7.60
2018-05-04T23:12:50.852Z,6.57
2018-05-04T23:15:18.204Z,8.82
2018-05-04T23:17:45.625Z,5.18
2018-05-04T23:20:12.175Z,5.57
2018-05-04T23:22:38.939Z,10.35
2018-05-04T23:25:05.612Z,6.03
2018-05-04T23:27:32.152Z,6.68
2018-05-04T23:29:59.725Z,6.95
2018-05-04T23:32:26.233Z,7.87
2018-05-04T23:34:53.178Z,5.23
2018-05-04T23:37:19.670Z,6.82
2018-05-04T23:39:46.710Z,4.20
2018-05-04T23:42:13.325Z,6.55
2018-05-04T23:44:39.970Z,6.97
2018-05-04T23:47:06.568Z,6.70
2018-05-04T23:49:33.099Z,7.93
2018-05-04T23:51:59.537Z,6.87
2018-05-04T23:54:26.068Z,6.60
2018-05-04T23:56:52.591Z,7.90
2018-05-04T23:59:19.123Z,7.07
